Time;durP1;ratioP1;P1;durP2;ratioP2;P2;SDS_P1;SDS_P2;PMS_P1;PMS_P2;Temp;Humidity;BMP_temperature;BMP_pressure;BME280_temperature;BME280_humidity;BME280_pressure;Samples;Min_cycle;Max_cycle;Signal;HPM_P1;HPM_P2
2024/04/06 04:00:26;;;;;;;2.55;2.35;;;10.60;99.90;;;;;;6001943;23;21642;31
2024/04/06 04:02:53;;;;;;;2.42;2.33;;;10.50;99.90;;;;;;4889538;29;20215;-72
2024/04/06 04:05:20;;;;;;;3.40;2.17;;;10.50;99.90;;;;;;4893260;29;20265;-73
2024/04/06 04:07:46;;;;;;;2.70;2.60;;;10.40;99.90;;;;;;4890314;29;20213;-73
2024/04/06 04:10:13;;;;;;;2.67;2.57;;;10.40;99.90;;;;;;4888826;29;20222;-72
2024/04/06 04:12:38;;;;;;;2.55;2.50;;;10.40;99.90;;;;;;4886934;29;20214;-73
2024/04/06 04:15:06;;;;;;;2.57;2.47;;;10.30;99.90;;;;;;4882181;29;20211;-73
2024/04/06 04:17:32;;;;;;;2.42;2.30;;;10.30;99.90;;;;;;4886311;29;20596;-72
2024/04/06 04:20:00;;;;;;;3.50;2.53;;;10.20;99.90;;;;;;4889380;29;20574;-73
2024/04/06 04:22:26;;;;;;;5.82;2.90;;;10.20;99.90;;;;;;4890983;29;20671;-72
2024/04/06 04:24:53;;;;;;;3.03;2.92;;;10.10;99.90;;;;;;4887979;29;20203;-72
2024/04/06 04:27:19;;;;;;;3.00;2.45;;;10.10;99.90;;;;;;4886279;29;20208;-72
2024/04/06 04:29:45;;;;;;;1.80;1.80;;;10.00;99.90;;;;;;4881666;29;20700;-73
2024/04/06 04:32:11;;;;;;;2.10;2.00;;;10.00;99.90;;;;;;4882833;29;20223;-72
2024/04/06 04:34:38;;;;;;;2.60;2.50;;;9.90;99.90;;;;;;4887389;29;20263;-73
2024/04/06 04:37:05;;;;;;;2.50;2.40;;;9.90;99.90;;;;;;4884414;29;20486;-72
2024/04/06 04:39:32;;;;;;;2.50;2.40;;;9.90;99.90;;;;;;4890698;29;20211;-73
2024/04/06 04:41:58;;;;;;;2.58;2.42;;;9.80;99.90;;;;;;4894054;29;20223;-72
2024/04/06 04:44:26;;;;;;;2.40;2.30;;;9.80;99.90;;;;;;4886870;29;20966;-72
2024/04/06 04:46:52;;;;;;;2.97;2.78;;;9.80;99.90;;;;;;4896229;29;20206;-73
2024/04/06 04:49:19;;;;;;;2.23;2.07;;;9.80;99.90;;;;;;4887987;29;20208;-72
2024/04/06 04:51:45;;;;;;;3.22;3.08;;;9.80;99.90;;;;;;4893300;29;20923;-73
2024/04/06 04:54:13;;;;;;;3.33;2.43;;;9.80;99.90;;;;;;4888171;29;20290;-72
2024/04/06 04:56:38;;;;;;;5.18;2.72;;;9.80;99.90;;;;;;4882390;29;20320;-72
2024/04/06 04:59:05;;;;;;;2.13;1.90;;;9.80;99.90;;;;;;4886249;29;20213;-73
2024/04/06 05:01:31;;;;;;;3.70;2.92;;;9.80;99.90;;;;;;4885344;29;20663;-73
2024/04/06 05:03:57;;;;;;;2.17;2.17;;;9.90;99.90;;;;;;4889371;29;20211;-73
2024/04/06 05:06:23;;;;;;;3.47;3.17;;;9.80;99.90;;;;;;4891155;29;20224;-72
2024/04/06 05:08:50;;;;;;;3.70;3.40;;;9.90;99.90;;;;;;4896839;29;20203;-71
2024/04/06 05:11:17;;;;;;;2.85;2.75;;;9.90;99.90;;;;;;4889195;29;20239;-73
2024/04/06 05:13:44;;;;;;;3.03;2.92;;;10.00;99.90;;;;;;4885885;29;20565;-73
2024/04/06 05:16:10;;;;;;;5.95;3.47;;;10.10;99.90;;;;;;4885485;29;20264;-71
2024/04/06 05:18:37;;;;;;;2.60;2.50;;;10.20;99.90;;;;;;4892605;29;20203;-72
2024/04/06 05:21:03;;;;;;;3.40;3.20;;;10.20;99.90;;;;;;4893872;29;20597;-72
2024/04/06 05:23:29;;;;;;;3.17;3.07;;;10.20;99.90;;;;;;4892730;29;20291;-72
2024/04/06 05:25:55;;;;;;;5.18;3.25;;;10.20;99.90;;;;;;4889748;29;20460;-72
2024/04/06 05:28:25;;;;;;;3.47;3.17;;;10.30;99.90;;;;;;4889539;29;20238;-72
2024/04/06 05:30:51;;;;;;;2.42;2.33;;;10.30;99.90;;;;;;4887731;29;20263;-72
2024/04/06 05:33:19;;;;;;;3.47;3.25;;;10.30;99.90;;;;;;4890232;29;20216;-72
2024/04/06 05:35:47;;;;;;;3.88;3.67;;;10.40;99.90;;;;;;4888835;29;20207;-73
2024/04/06 05:38:14;;;;;;;3.08;2.97;;;10.40;99.90;;;;;;4885723;29;20235;-72
2024/04/06 05:40:42;;;;;;;2.57;2.47;;;10.40;99.90;;;;;;4886847;29;22410;-72
2024/04/06 05:43:09;;;;;;;5.60;2.90;;;10.40;99.90;;;;;;4886451;29;20820;-73
2024/04/06 05:45:36;;;;;;;3.50;3.30;;;10.40;99.90;;;;;;4884396;29;20479;-72
2024/04/06 05:48:04;;;;;;;2.87;2.77;;;10.50;99.90;;;;;;4885279;29;20519;-72
2024/04/06 05:50:29;;;;;;;2.53;2.43;;;10.50;99.90;;;;;;4889914;29;20490;-71
2024/04/06 05:52:56;;;;;;;3.60;3.30;;;10.50;99.90;;;;;;4892650;29;20554;-72
2024/04/06 05:55:22;;;;;;;3.13;3.03;;;10.50;99.90;;;;;;4890086;29;20491;-72
2024/04/06 05:57:49;;;;;;;3.20;3.00;;;10.50;99.90;;;;;;4893466;29;20227;-72
2024/04/06 06:00:15;;;;;;;9.60;3.90;;;10.60;99.90;;;;;;4885820;29;20211;-72
2024/04/06 06:02:43;;;;;;;3.90;3.58;;;10.70;99.90;;;;;;4892738;29;20295;-72
2024/04/06 06:05:09;;;;;;;3.27;3.07;;;10.70;99.90;;;;;;4892219;29;20211;-72
2024/04/06 06:07:36;;;;;;;3.90;3.60;;;10.80;99.90;;;;;;4891761;29;20944;-72
2024/04/06 06:10:02;;;;;;;4.27;3.93;;;10.80;99.90;;;;;;4888136;29;20909;-72
2024/04/06 06:12:29;;;;;;;3.80;3.47;;;10.90;99.90;;;;;;4895377;29;20522;-72
2024/04/06 06:14:55;;;;;;;3.90;3.60;;;11.00;99.90;;;;;;4891376;29;20859;-71
2024/04/06 06:17:22;;;;;;;6.53;5.87;;;11.10;99.90;;;;;;4885862;29;20487;-71
2024/04/06 06:19:49;;;;;;;5.00;4.60;;;11.20;99.90;;;;;;4888312;29;20740;-72
2024/04/06 06:22:15;;;;;;;5.00;4.60;;;11.40;99.90;;;;;;4884291;29;21078;-71
2024/04/06 06:24:42;;;;;;;6.67;5.53;;;11.50;99.90;;;;;;4889058;29;20838;-71
2024/04/06 06:27:08;;;;;;;6.90;6.20;;;11.60;99.90;;;;;;4890332;29;20988;-71
2024/04/06 06:29:34;;;;;;;5.60;5.20;;;11.80;99.90;;;;;;4885809;29;20476;-71
2024/04/06 06:32:01;;;;;;;9.10;5.40;;;11.90;99.90;;;;;;4889888;29;21158;-71
2024/04/06 06:34:28;;;;;;;5.40;5.13;;;12.00;99.90;;;;;;4885828;29;20487;-71
2024/04/06 06:36:56;;;;;;;11.20;5.20;;;12.20;99.90;;;;;;4883006;29;20520;-72
2024/04/06 06:39:22;;;;;;;6.70;6.13;;;12.30;99.90;;;;;;4882638;29;20476;-71
2024/04/06 06:41:48;;;;;;;7.30;5.10;;;12.40;99.90;;;;;;4893147;29;20496;-71
2024/04/06 06:44:14;;;;;;;5.90;5.40;;;12.50;99.90;;;;;;4893674;29;20475;-71
2024/04/06 06:46:41;;;;;;;6.87;5.00;;;12.60;99.90;;;;;;4892878;29;20479;-71
2024/04/06 06:49:07;;;;;;;4.77;4.47;;;12.70;99.90;;;;;;4892515;29;20226;-72
2024/04/06 06:51:35;;;;;;;4.43;4.13;;;12.80;99.90;;;;;;4888394;29;20509;-71
2024/04/06 06:54:02;;;;;;;4.40;4.00;;;12.80;99.90;;;;;;4894740;29;20706;-72
2024/04/06 06:56:29;;;;;;;4.70;3.97;;;12.80;99.90;;;;;;4894641;29;21022;-72
2024/04/06 06:58:55;;;;;;;7.13;4.50;;;12.90;99.90;;;;;;4890037;29;20479;-72
2024/04/06 07:01:22;;;;;;;4.60;4.30;;;12.90;99.90;;;;;;4889586;29;20499;-72
2024/04/06 07:03:48;;;;;;;4.47;4.07;;;13.00;99.90;;;;;;4892299;29;20238;-72
2024/04/06 07:06:15;;;;;;;4.57;4.17;;;13.10;99.90;;;;;;4895459;29;20460;-71
2024/04/06 07:08:41;;;;;;;4.50;4.10;;;13.30;99.90;;;;;;4892347;29;20219;-70
2024/04/06 07:11:10;;;;;;;3.47;3.27;;;13.50;99.90;;;;;;4891056;29;20487;-71
2024/04/06 07:13:36;;;;;;;4.17;3.97;;;13.70;99.90;;;;;;4889238;29;20474;-73
2024/04/06 07:16:05;;;;;;;3.73;3.43;;;13.90;99.90;;;;;;4889362;29;20480;-73
2024/04/06 07:18:30;;;;;;;3.73;3.50;;;14.00;99.90;;;;;;4880587;29;20254;-73
2024/04/06 07:20:57;;;;;;;4.10;3.83;;;14.10;99.90;;;;;;4891398;29;20526;-72
2024/04/06 07:23:23;;;;;;;3.57;3.07;;;14.20;99.90;;;;;;4891761;29;20218;-73
2024/04/06 07:25:50;;;;;;;2.80;2.60;;;14.30;99.90;;;;;;4889327;29;20472;-73
2024/04/06 07:28:17;;;;;;;3.67;3.30;;;14.40;99.90;;;;;;4884395;29;20293;-73
2024/04/06 07:30:44;;;;;;;3.57;3.27;;;14.40;99.90;;;;;;4888114;29;20839;-73
2024/04/06 07:33:09;;;;;;;2.80;2.60;;;14.60;99.90;;;;;;4890038;29;20572;-73
2024/04/06 07:35:37;;;;;;;2.70;2.50;;;14.60;99.90;;;;;;4884587;29;20583;-72
2024/04/06 07:38:03;;;;;;;2.43;2.33;;;14.70;99.90;;;;;;4890878;29;20294;-73
2024/04/06 07:40:30;;;;;;;3.33;3.13;;;14.70;99.90;;;;;;4883408;29;20467;-73
2024/04/06 07:42:56;;;;;;;2.77;2.67;;;14.80;99.90;;;;;;4890406;29;20876;-72
2024/04/06 07:45:24;;;;;;;2.70;2.60;;;14.80;99.90;;;;;;4889835;29;20471;-73
2024/04/06 07:47:50;;;;;;;3.73;3.20;;;14.90;99.90;;;;;;4890127;29;20464;-73
2024/04/06 07:50:17;;;;;;;2.20;2.10;;;15.00;99.90;;;;;;4890106;29;20490;-72
2024/04/06 07:52:43;;;;;;;2.23;2.13;;;15.00;99.90;;;;;;4889483;29;20492;-72
2024/04/06 07:55:09;;;;;;;2.90;2.70;;;15.00;99.90;;;;;;4891098;29;20463;-72
2024/04/06 07:57:35;;;;;;;3.37;3.03;;;15.10;99.90;;;;;;4889488;29;20243;-72
2024/04/06 08:00:03;;;;;;;2.63;2.43;;;15.20;99.90;;;;;;4891564;29;20467;-72
2024/04/06 08:02:30;;;;;;;2.60;2.40;;;15.10;99.90;;;;;;4884496;29;20323;-71
2024/04/06 08:04:57;;;;;;;2.60;2.40;;;15.10;99.90;;;;;;4888123;29;20982;-72
2024/04/06 08:07:23;;;;;;;2.30;2.30;;;15.20;99.90;;;;;;4889739;29;20515;-72
2024/04/06 08:09:50;;;;;;;2.20;2.20;;;15.30;99.90;;;;;;4891445;29;20879;-72
2024/04/06 08:12:16;;;;;;;6.33;3.10;;;15.40;99.90;;;;;;4892457;29;20258;-73
2024/04/06 08:14:43;;;;;;;2.60;2.50;;;15.50;99.90;;;;;;4888893;29;20468;-73
2024/04/06 08:17:08;;;;;;;3.30;3.10;;;15.60;99.90;;;;;;4894714;29;20231;-73
2024/04/06 08:19:36;;;;;;;3.30;3.10;;;15.80;99.90;;;;;;4893756;29;20847;-72
2024/04/06 08:22:03;;;;;;;2.10;2.00;;;16.00;99.90;;;;;;4894196;29;20392;-72
2024/04/06 08:24:30;;;;;;;2.63;2.53;;;16.10;99.90;;;;;;4893458;29;20475;-72
2024/04/06 08:26:56;;;;;;;2.67;2.57;;;16.30;99.90;;;;;;4894525;29;20460;-72
2024/04/06 08:29:23;;;;;;;2.60;2.43;;;16.40;99.90;;;;;;4892774;29;20467;-72
2024/04/06 08:31:48;;;;;;;2.93;2.83;;;16.50;99.90;;;;;;4894481;29;20230;-72
2024/04/06 08:34:15;;;;;;;2.10;2.00;;;16.60;99.90;;;;;;4894705;29;20885;-72
2024/04/06 08:36:42;;;;;;;3.10;3.00;;;16.70;99.90;;;;;;4893478;29;20232;-72
2024/04/06 08:39:09;;;;;;;2.57;2.47;;;16.80;99.90;;;;;;4894911;29;20499;-72
2024/04/06 08:41:36;;;;;;;2.73;2.53;;;16.90;99.90;;;;;;4889926;29;20933;-72
2024/04/06 08:44:07;;;;;;;2.93;2.43;;;17.00;99.90;;;;;;4894054;29;20982;-72
2024/04/06 08:46:33;;;;;;;2.33;2.33;;;17.10;99.90;;;;;;4893304;29;20562;-72
2024/04/06 08:49:02;;;;;;;2.63;2.53;;;17.10;99.90;;;;;;4894608;29;20463;-72
2024/04/06 08:51:29;;;;;;;2.60;2.43;;;17.10;99.90;;;;;;4893794;29;20523;-72
2024/04/06 08:53:59;;;;;;;2.90;2.70;;;17.10;99.90;;;;;;4894360;29;20464;-72
2024/04/06 08:56:25;;;;;;;3.53;3.43;;;17.30;99.90;;;;;;4891962;29;20471;-72
2024/04/06 08:58:51;;;;;;;3.23;3.03;;;17.50;99.90;;;;;;4894749;29;20683;-71
2024/04/06 09:01:17;;;;;;;2.80;2.60;;;17.50;99.90;;;;;;4892061;29;20251;-71
2024/04/06 09:03:44;;;;;;;2.83;2.83;;;17.50;99.90;;;;;;4893388;29;20471;-71
2024/04/06 09:06:19;;;;;;;2.50;2.40;;;17.50;99.90;;;;;;4890680;29;20214;-71
2024/04/06 09:08:46;;;;;;;3.77;2.83;;;17.70;99.90;;;;;;4891937;29;21296;-71
2024/04/06 09:11:13;;;;;;;3.73;3.43;;;17.90;99.90;;;;;;4890553;29;20487;-71
2024/04/06 09:13:40;;;;;;;3.23;3.03;;;18.20;99.90;;;;;;4892996;29;20504;-71
2024/04/06 09:16:07;;;;;;;4.37;4.03;;;18.40;99.90;;;;;;4894038;29;20979;-71
2024/04/06 09:18:34;;;;;;;3.07;2.97;;;18.40;99.90;;;;;;4893041;29;20503;-71
2024/04/06 09:21:00;;;;;;;3.57;3.37;;;18.50;99.90;;;;;;4893398;29;20965;-71
2024/04/06 09:23:26;;;;;;;3.53;3.33;;;18.60;99.90;;;;;;4892680;29;20474;-71
2024/04/06 09:25:58;;;;;;;2.70;2.60;;;18.50;99.90;;;;;;4893673;29;20215;-72
2024/04/06 09:28:28;;;;;;;2.40;2.30;;;18.70;99.90;;;;;;4893157;29;20483;-71
2024/04/06 09:30:56;;;;;;;2.73;2.63;;;18.80;99.90;;;;;;4888200;29;20857;-72
2024/04/06 09:33:24;;;;;;;3.10;2.67;;;18.80;99.90;;;;;;4893646;29;20471;-72
2024/04/06 09:35:51;;;;;;;2.30;2.20;;;18.90;99.90;;;;;;4887371;29;20476;-72
2024/04/06 09:38:18;;;;;;;2.87;2.67;;;19.00;99.90;;;;;;4894225;29;20503;-72
2024/04/06 09:40:45;;;;;;;2.93;2.83;;;19.00;99.90;;;;;;4893555;29;20488;-72
2024/04/06 09:43:12;;;;;;;2.77;2.23;;;18.90;99.90;;;;;;4894353;29;20479;-71
2024/04/06 09:45:39;;;;;;;2.47;2.37;;;18.80;99.90;;;;;;4892736;29;20479;-72
2024/04/06 09:48:09;;;;;;;2.60;2.50;;;18.80;99.90;;;;;;4889893;29;20571;-71
2024/04/06 09:50:37;;;;;;;2.97;2.60;;;18.70;99.90;;;;;;4893236;29;20515;-71
2024/04/06 09:53:04;;;;;;;2.23;2.23;;;18.70;99.90;;;;;;4894122;29;20538;-72
2024/04/06 09:55:31;;;;;;;2.50;2.30;;;18.60;99.90;;;;;;4892645;29;20502;-72
2024/04/06 09:57:58;;;;;;;2.53;2.50;;;18.60;99.90;;;;;;4893872;29;20950;-72
2024/04/06 10:00:24;;;;;;;2.00;1.90;;;18.70;99.90;;;;;;4893829;29;20598;-72
2024/04/06 10:02:53;;;;;;;1.77;1.77;;;18.70;99.90;;;;;;4888309;29;20596;-72
2024/04/06 10:05:18;;;;;;;1.97;1.87;;;18.70;99.90;;;;;;4892856;29;20211;-72
2024/04/06 10:07:49;;;;;;;2.43;2.27;;;18.80;99.90;;;;;;4893561;29;20780;-72
2024/04/06 10:10:15;;;;;;;1.90;1.90;;;18.80;99.90;;;;;;4894311;29;20215;-72
2024/04/06 10:12:43;;;;;;;1.50;1.50;;;18.90;99.90;;;;;;4890105;29;20463;-72
2024/04/06 10:15:13;;;;;;;2.20;2.20;;;18.80;99.90;;;;;;4888549;29;20464;-72
2024/04/06 10:17:46;;;;;;;1.53;1.43;;;18.80;99.90;;;;;;4899295;29;20876;-72
2024/04/06 10:20:13;;;;;;;1.43;1.33;;;18.90;99.90;;;;;;4894382;29;20463;-71
2024/04/06 10:22:55;;;;;;;1.40;1.40;;;18.90;99.90;;;;;;4892637;29;20478;-71
2024/04/06 10:25:26;;;;;;;1.30;1.20;;;18.90;99.90;;;;;;4892108;29;20504;-72
2024/04/06 10:28:00;;;;;;;2.97;1.77;;;19.00;99.90;;;;;;4894186;29;20463;-73
2024/04/06 10:30:27;;;;;;;2.07;1.47;;;19.00;99.90;;;;;;4893043;29;20502;-72
2024/04/06 10:32:53;;;;;;;2.20;1.47;;;19.00;99.90;;;;;;4894701;29;20550;-72
2024/04/06 10:35:21;;;;;;;1.60;1.23;;;19.00;99.90;;;;;;4894159;29;20468;-72
2024/04/06 10:37:48;;;;;;;1.00;1.00;;;19.00;99.90;;;;;;4894107;29;20562;-72
2024/04/06 10:40:13;;;;;;;1.30;1.20;;;19.00;99.90;;;;;;4895109;29;20471;-72
2024/04/06 10:42:41;;;;;;;2.37;1.50;;;19.10;99.90;;;;;;4892945;29;20467;-72
2024/04/06 10:45:08;;;;;;;1.37;1.37;;;19.20;99.90;;;;;;4895871;29;20490;-72
2024/04/06 10:47:35;;;;;;;1.20;1.20;;;19.30;99.90;;;;;;4899081;29;20553;-72
2024/04/06 10:50:00;;;;;;;2.53;1.17;;;19.40;99.90;;;;;;4896458;29;20502;-72
2024/04/06 10:52:29;;;;;;;1.10;1.00;;;19.50;99.90;;;;;;4891642;29;21009;-72
2024/04/06 10:54:55;;;;;;;1.50;1.40;;;19.60;99.90;;;;;;4894676;29;20369;-72
2024/04/06 10:57:24;;;;;;;3.43;1.60;;;19.60;99.90;;;;;;4893680;29;21029;-72
2024/04/06 10:59:51;;;;;;;1.27;1.27;;;19.60;99.90;;;;;;4886691;29;20558;-72
2024/04/06 11:02:18;;;;;;;1.63;1.53;;;19.70;99.90;;;;;;4894595;29;20502;-72
2024/04/06 11:04:43;;;;;;;1.20;1.20;;;19.70;99.90;;;;;;4894171;29;20480;-72
2024/04/06 11:07:11;;;;;;;1.27;1.23;;;19.70;99.90;;;;;;4895817;29;20472;-72
2024/04/06 11:09:39;;;;;;;2.00;1.00;;;19.80;99.90;;;;;;4887946;29;20243;-72
2024/04/06 11:12:07;;;;;;;2.73;1.40;;;19.70;99.90;;;;;;4894860;29;20495;-72
2024/04/06 11:14:32;;;;;;;0.70;0.70;;;19.70;99.90;;;;;;4894584;29;20507;-73
2024/04/06 11:17:01;;;;;;;1.20;1.20;;;19.70;99.90;;;;;;4885820;29;20472;-71
2024/04/06 11:19:26;;;;;;;1.00;1.00;;;19.80;99.90;;;;;;4883882;29;20582;-72
2024/04/06 11:21:53;;;;;;;1.13;0.80;;;19.90;99.90;;;;;;4886722;29;20566;-72
2024/04/06 11:24:19;;;;;;;1.07;1.07;;;19.80;99.90;;;;;;4894328;29;20246;-72
2024/04/06 11:26:47;;;;;;;0.70;0.70;;;19.80;99.90;;;;;;4887684;29;20461;-72
2024/04/06 11:29:13;;;;;;;1.47;0.80;;;19.90;99.90;;;;;;4891348;29;20214;-72
2024/04/06 11:31:40;;;;;;;1.47;0.70;;;20.00;99.90;;;;;;4881734;29;20618;-72
2024/04/06 11:34:06;;;;;;;1.03;1.00;;;20.30;99.90;;;;;;4882130;29;20464;-72
2024/04/06 11:36:34;;;;;;;0.87;0.87;;;20.50;99.90;;;;;;4890220;29;20478;-71
2024/04/06 11:38:59;;;;;;;0.60;0.60;;;20.60;99.90;;;;;;4888434;29;20255;-71
2024/04/06 11:41:27;;;;;;;0.87;0.87;;;20.70;99.90;;;;;;4889593;29;20530;-72
2024/04/06 11:43:54;;;;;;;0.83;0.83;;;20.70;99.90;;;;;;4887924;29;20251;-71
2024/04/06 11:46:20;;;;;;;0.50;0.50;;;20.70;99.90;;;;;;4896122;29;21029;-69
2024/04/06 11:48:46;;;;;;;0.67;0.60;;;20.70;99.90;;;;;;4898485;29;20966;-70
2024/04/06 11:51:13;;;;;;;0.70;0.70;;;20.90;99.90;;;;;;4896064;29;20494;-71
2024/04/06 11:53:39;;;;;;;0.83;0.60;;;20.90;99.90;;;;;;4893464;29;20222;-71
2024/04/06 11:56:05;;;;;;;0.77;0.73;;;21.00;99.90;;;;;;4895663;29;20840;-71
2024/04/06 11:58:31;;;;;;;0.70;0.70;;;21.20;99.90;;;;;;4897004;29;20242;-72
2024/04/06 12:00:59;;;;;;;2.93;2.33;;;21.40;99.90;;;;;;4895316;29;20974;-72
2024/04/06 12:03:26;;;;;;;0.60;0.60;;;21.70;99.90;;;;;;4881371;29;20208;-72
2024/04/06 12:05:53;;;;;;;0.60;0.60;;;21.90;99.90;;;;;;4886373;29;20467;-73
2024/04/06 12:08:19;;;;;;;0.70;0.70;;;22.00;99.90;;;;;;4890923;29;20211;-72
2024/04/06 12:10:46;;;;;;;0.50;0.50;;;22.10;99.90;;;;;;4879894;29;20491;-72
2024/04/06 12:13:11;;;;;;;0.67;0.67;;;22.00;99.90;;;;;;4884947;29;20510;-72
2024/04/06 12:15:40;;;;;;;0.83;0.83;;;22.00;99.90;;;;;;4882319;29;20479;-73
2024/04/06 12:18:08;;;;;;;1.70;0.60;;;21.80;99.90;;;;;;4891236;29;20714;-73
2024/04/06 12:20:35;;;;;;;0.67;0.67;;;21.60;99.90;;;;;;4894146;29;20630;-72
2024/04/06 12:23:01;;;;;;;0.50;0.50;;;21.60;99.90;;;;;;4892164;29;20472;-73
2024/04/06 12:25:27;;;;;;;0.60;0.60;;;21.60;99.90;;;;;;4888294;29;20482;-73
2024/04/06 12:27:54;;;;;;;0.57;0.57;;;21.70;99.90;;;;;;4888930;29;20464;-72
2024/04/06 12:30:21;;;;;;;2.30;1.00;;;21.70;99.90;;;;;;4881489;29;21031;-72
2024/04/06 12:32:46;;;;;;;0.87;0.57;;;21.50;99.90;;;;;;4885289;29;20475;-71
2024/04/06 12:35:15;;;;;;;1.40;0.60;;;21.60;99.90;;;;;;4879754;29;20490;-72
2024/04/06 12:37:40;;;;;;;0.67;0.67;;;21.80;99.90;;;;;;4885891;29;20231;-71
2024/04/06 12:40:08;;;;;;;0.60;0.60;;;21.80;99.90;;;;;;4885537;29;20478;-71
2024/04/06 12:42:34;;;;;;;0.60;0.57;;;22.00;99.90;;;;;;4881670;29;20247;-72
2024/04/06 12:45:00;;;;;;;0.37;0.37;;;22.20;99.90;;;;;;4880757;29;20546;-71
2024/04/06 12:47:26;;;;;;;0.60;0.60;;;22.40;99.90;;;;;;4891760;29;20298;-71
2024/04/06 12:49:53;;;;;;;1.13;0.50;;;22.50;99.90;;;;;;4895705;29;20555;-71
2024/04/06 12:52:20;;;;;;;0.50;0.50;;;22.40;99.90;;;;;;4890845;29;20227;-71
2024/04/06 12:54:48;;;;;;;0.40;0.40;;;22.30;99.90;;;;;;4891736;29;20653;-71
2024/04/06 12:59:58;;;;;;;0.43;0.33;;;22.20;99.90;;;;;;4888260;29;20458;-71
2024/04/06 13:02:24;;;;;;;0.87;0.40;;;22.10;99.90;;;;;;4882088;29;20500;-70
2024/04/06 13:04:51;;;;;;;0.37;0.37;;;22.10;99.90;;;;;;4896555;29;20829;-70
2024/04/06 13:07:17;;;;;;;0.50;0.50;;;22.30;99.90;;;;;;4897229;29;20459;-70
2024/04/06 13:09:53;;;;;;;0.37;0.37;;;22.40;99.90;;;;;;4891340;29;20481;-70
2024/04/06 13:12:22;;;;;;;0.23;0.23;;;22.60;99.90;;;;;;4886488;29;20236;-70
2024/04/06 13:14:48;;;;;;;0.47;0.47;;;22.70;99.90;;;;;;4896276;29;21014;-70
2024/04/06 13:17:14;;;;;;;0.70;0.70;;;22.60;99.90;;;;;;4889733;29;20486;-71
2024/04/06 13:19:41;;;;;;;0.50;0.50;;;22.50;99.90;;;;;;4890733;29;20964;-72
2024/04/06 13:22:07;;;;;;;0.70;0.70;;;22.50;99.90;;;;;;4885967;29;20602;-71
2024/04/06 13:24:34;;;;;;;0.50;0.50;;;22.50;99.90;;;;;;4885761;29;20476;-71
2024/04/06 13:27:01;;;;;;;0.40;0.40;;;22.50;99.90;;;;;;4884064;29;20307;-71
2024/04/06 13:29:27;;;;;;;0.43;0.43;;;22.60;99.90;;;;;;4880717;29;21053;-71
2024/04/06 13:31:53;;;;;;;0.60;0.60;;;22.50;99.90;;;;;;4887660;29;20503;-71
2024/04/06 13:34:20;;;;;;;0.30;0.30;;;22.30;99.90;;;;;;4888583;29;20471;-71
2024/04/06 13:36:45;;;;;;;0.50;0.50;;;22.40;99.90;;;;;;4882236;29;20212;-76
2024/04/06 13:39:12;;;;;;;1.23;0.60;;;22.70;99.90;;;;;;4882954;29;20515;-72
2024/04/06 13:41:38;;;;;;;0.50;0.50;;;22.60;99.90;;;;;;4880675;29;20236;-73
2024/04/06 13:44:06;;;;;;;0.53;0.53;;;22.60;99.90;;;;;;4884852;29;20467;-74
2024/04/06 13:46:32;;;;;;;2.00;0.33;;;22.50;99.90;;;;;;4881366;29;20215;-73
2024/04/06 13:48:59;;;;;;;0.50;0.50;;;22.50;99.90;;;;;;4879249;29;20598;-73
2024/04/06 13:51:24;;;;;;;1.03;0.43;;;22.50;99.90;;;;;;4879305;29;20488;-73
2024/04/06 13:53:51;;;;;;;0.70;0.70;;;22.60;99.90;;;;;;4882917;29;20503;-72
2024/04/06 13:56:17;;;;;;;0.30;0.30;;;22.70;99.90;;;;;;4880827;29;20291;-73
2024/04/06 13:58:44;;;;;;;1.37;0.57;;;22.70;99.90;;;;;;4886732;29;20499;-72
2024/04/06 14:01:11;;;;;;;0.60;0.60;;;22.60;99.90;;;;;;4879235;29;20508;-73
2024/04/06 14:03:38;;;;;;;0.60;0.60;;;22.60;99.90;;;;;;4879916;29;20472;-72
2024/04/06 14:06:04;;;;;;;0.50;0.50;;;22.60;99.90;;;;;;4880303;29;20476;-73
2024/04/06 14:08:31;;;;;;;0.47;0.47;;;22.90;99.90;;;;;;4881339;29;20519;-73
2024/04/06 14:10:57;;;;;;;0.77;0.77;;;22.90;99.90;;;;;;4879013;29;20999;-72
2024/04/06 14:13:28;;;;;;;0.50;0.50;;;22.90;99.90;;;;;;4879527;29;20483;-72
2024/04/06 14:15:54;;;;;;;0.30;0.30;;;22.90;99.90;;;;;;4880602;29;20222;-72
2024/04/06 14:18:22;;;;;;;0.50;0.50;;;22.90;99.90;;;;;;4879195;29;20603;-73
2024/04/06 14:20:48;;;;;;;1.70;0.47;;;22.80;99.90;;;;;;4880048;29;20495;-73
2024/04/06 14:23:15;;;;;;;0.50;0.50;;;22.80;99.90;;;;;;4879207;29;20850;-72
2024/04/06 14:25:40;;;;;;;0.67;0.67;;;22.80;99.90;;;;;;4880991;29;20212;-72
2024/04/06 14:28:08;;;;;;;0.80;0.80;;;22.60;99.90;;;;;;4879182;29;20476;-72
2024/04/06 14:30:36;;;;;;;0.40;0.40;;;22.50;99.90;;;;;;4880298;29;20362;-73
2024/04/06 14:33:02;;;;;;;1.60;0.60;;;22.50;99.90;;;;;;4881661;29;20555;-73
2024/04/06 14:35:30;;;;;;;0.50;0.50;;;22.40;99.90;;;;;;4879612;29;20480;-72
2024/04/06 14:37:56;;;;;;;0.60;0.60;;;22.40;99.90;;;;;;4879788;29;21018;-72
2024/04/06 14:40:22;;;;;;;1.70;0.70;;;22.40;99.90;;;;;;4883424;29;20812;-72
2024/04/06 14:42:49;;;;;;;0.80;0.77;;;22.50;99.90;;;;;;4885986;29;20999;-72
2024/04/06 14:45:15;;;;;;;0.90;0.90;;;22.50;99.90;;;;;;4879211;29;20472;-73
2024/04/06 14:47:42;;;;;;;1.03;1.03;;;22.60;99.90;;;;;;4880199;29;20471;-73
2024/04/06 14:50:10;;;;;;;0.73;0.73;;;22.60;99.90;;;;;;4879362;29;20952;-73
2024/04/06 14:52:39;;;;;;;0.53;0.53;;;22.60;99.90;;;;;;4886118;29;20984;-73
2024/04/06 14:55:05;;;;;;;0.83;0.83;;;22.70;99.90;;;;;;4885667;29;20475;-73
2024/04/06 14:57:33;;;;;;;1.70;0.80;;;22.80;99.90;;;;;;4880680;29;20476;-72
2024/04/06 14:59:59;;;;;;;1.37;1.37;;;22.80;99.90;;;;;;4879293;29;20472;-73
2024/04/06 15:02:25;;;;;;;0.97;0.97;;;22.80;99.90;;;;;;4878336;29;20500;-72
2024/04/06 15:04:51;;;;;;;0.57;0.57;;;22.80;99.90;;;;;;4881165;29;20471;-73
2024/04/06 15:07:18;;;;;;;1.33;1.10;;;22.80;99.90;;;;;;4882948;29;20475;-72
2024/04/06 15:09:46;;;;;;;1.17;0.70;;;22.80;99.90;;;;;;4880046;29;20552;-72
2024/04/06 15:12:12;;;;;;;0.90;0.90;;;22.90;99.90;;;;;;4881256;29;20999;-73
2024/04/06 15:14:38;;;;;;;1.53;0.80;;;22.80;99.90;;;;;;4882377;29;20470;-72
2024/04/06 15:17:07;;;;;;;1.13;0.80;;;22.80;99.90;;;;;;4882139;29;20467;-72
2024/04/06 15:19:33;;;;;;;0.53;0.53;;;22.80;99.90;;;;;;4883569;29;20322;-72
2024/04/06 15:22:00;;;;;;;3.60;0.90;;;22.80;99.90;;;;;;4880209;29;20524;-73
2024/04/06 15:24:26;;;;;;;0.80;0.80;;;22.80;99.90;;;;;;4880778;29;20468;-73
2024/04/06 15:26:54;;;;;;;1.10;1.10;;;22.90;99.90;;;;;;4881640;29;20499;-73
2024/04/06 15:29:20;;;;;;;1.00;0.90;;;22.80;99.90;;;;;;4879538;29;20500;-73
2024/04/06 15:31:46;;;;;;;0.90;0.90;;;22.80;99.90;;;;;;4881610;29;20929;-73
2024/04/06 15:34:12;;;;;;;0.90;0.90;;;22.80;99.90;;;;;;4879748;29;20222;-74
2024/04/06 15:36:39;;;;;;;1.30;1.20;;;22.80;99.90;;;;;;4880957;29;20472;-73
2024/04/06 15:39:21;;;;;;;0.70;0.70;;;22.70;99.90;;;;;;4880624;29;20236;-73
2024/04/06 15:41:48;;;;;;;1.17;1.17;;;22.70;99.90;;;;;;4881640;29;20503;-73
2024/04/06 15:44:15;;;;;;;1.10;1.10;;;22.70;99.90;;;;;;4879715;29;20472;-73
2024/04/06 15:46:42;;;;;;;1.10;1.10;;;22.70;99.90;;;;;;4879367;29;20583;-73
2024/04/06 15:49:08;;;;;;;1.90;1.17;;;22.70;99.90;;;;;;4879361;29;20567;-73
2024/04/06 15:51:35;;;;;;;2.27;1.50;;;22.70;99.90;;;;;;4880306;29;21003;-74
2024/04/06 15:54:01;;;;;;;1.43;1.23;;;22.70;99.90;;;;;;4879356;29;20468;-73
2024/04/06 15:56:28;;;;;;;0.80;0.80;;;22.70;99.90;;;;;;4878582;29;20916;-73
2024/04/06 15:58:54;;;;;;;1.73;1.63;;;22.60;99.90;;;;;;4880456;29;20235;-74
2024/04/06 16:01:22;;;;;;;1.13;1.13;;;22.60;99.90;;;;;;4878649;29;21025;-73
2024/04/06 16:03:48;;;;;;;1.37;1.37;;;22.60;99.90;;;;;;4880832;29;20299;-74
2024/04/06 16:06:15;;;;;;;1.60;1.03;;;22.50;99.90;;;;;;4879190;29;20508;-73
2024/04/06 16:08:40;;;;;;;0.97;0.97;;;22.50;99.90;;;;;;4885793;29;20460;-74
2024/04/06 16:11:08;;;;;;;1.23;1.23;;;22.40;99.90;;;;;;4879734;29;20480;-74
2024/04/06 16:13:34;;;;;;;1.40;1.30;;;22.40;99.90;;;;;;4880766;29;20231;-74
2024/04/06 16:16:00;;;;;;;1.60;1.10;;;22.30;99.90;;;;;;4880889;29;20503;-73
2024/04/06 16:18:27;;;;;;;1.30;1.20;;;22.30;99.90;;;;;;4878679;29;20228;-74
2024/04/06 16:20:54;;;;;;;7.10;1.30;;;22.20;99.90;;;;;;4881992;29;20566;-74
2024/04/06 16:23:20;;;;;;;1.30;1.30;;;22.20;99.90;;;;;;4883352;29;20468;-73
2024/04/06 16:25:46;;;;;;;1.00;1.00;;;22.20;99.90;;;;;;4886058;29;20491;-73
2024/04/06 16:28:12;;;;;;;1.07;1.07;;;22.10;99.90;;;;;;4881464;29;20629;-73
2024/04/06 16:30:39;;;;;;;1.90;1.90;;;22.10;99.90;;;;;;4879881;29;20488;-72
2024/04/06 16:33:05;;;;;;;1.03;1.03;;;22.10;99.90;;;;;;4881437;29;20216;-73
2024/04/06 16:35:33;;;;;;;0.87;0.87;;;22.10;99.90;;;;;;4883446;29;20483;-72
2024/04/06 16:38:00;;;;;;;1.30;1.30;;;22.10;99.90;;;;;;4894988;29;20592;-73
2024/04/06 16:40:26;;;;;;;1.10;1.10;;;22.00;99.90;;;;;;4883048;29;20559;-73
2024/04/06 16:42:52;;;;;;;1.67;1.53;;;21.90;99.90;;;;;;4884322;29;20467;-72
2024/04/06 16:45:19;;;;;;;1.13;0.93;;;21.90;99.90;;;;;;4888063;29;20813;-73
2024/04/06 16:47:45;;;;;;;1.47;1.37;;;21.80;99.90;;;;;;4888916;29;20208;-73